Terminal Aerodrome Forecast
Issued by NWS Charleston, WV

Current Version | Previous Version | Graphics & Text | Print | Product List | Glossary On
Versions: 1 2 3 4 5 6 7 8 9 10 11 12 13 14 15 16 17 18 19 20 21 22 23 24 25 26 27 28
000
FTUS41 KRLX 290300 AAA
TAFBKW
TAF AMD
KBKW 290320Z 2903/2924 00000KT P6SM SCT200
     FM290600 15006KT P6SM SCT150
     FM291500 16010G15KT P6SM BKN150
     FM291800 18011G16KT 5SM -RA BR OVC050
     FM292100 20009KT 6SM -RA BR OVC040
     FM292200 21009KT P6SM OVC035=

USA.gov is the U.S. government's official web portal to all federal, state and local government web resources and services.